createdAt,value
2019-05-17T00:00:47.470Z,27.37
2019-05-17T00:06:06.868Z,28.87
2019-05-17T00:11:27.324Z,27.75
2019-05-17T00:16:46.925Z,30.30
2019-05-17T00:22:07.306Z,28.60
2019-05-17T00:27:26.536Z,31.13
2019-05-17T00:32:47.347Z,28.77
2019-05-17T00:38:06.597Z,27.30
2019-05-17T00:43:26.257Z,29.30
2019-05-17T00:48:46.592Z,30.03
2019-05-17T00:54:06.871Z,30.47
2019-05-17T00:59:26.296Z,28.63
2019-05-17T01:04:47.421Z,30.07
2019-05-17T01:10:07.744Z,29.17
2019-05-17T01:15:27.308Z,30.33
2019-05-17T01:20:47.429Z,29.67
2019-05-17T01:26:07.547Z,30.80
2019-05-17T01:31:26.671Z,28.97
2019-05-17T01:36:46.452Z,30.50
2019-05-17T01:42:06.755Z,31.53
2019-05-17T01:47:27.241Z,29.53
2019-05-17T01:52:46.306Z,30.47
2019-05-17T01:58:07.444Z,28.03
2019-05-17T02:03:26.743Z,29.17
2019-05-17T02:08:47.533Z,30.57
2019-05-17T02:14:06.939Z,30.47
2019-05-17T02:19:26.546Z,31.00
2019-05-17T02:24:46.400Z,28.63
2019-05-17T02:30:08.808Z,29.77
2019-05-17T02:35:27.465Z,30.80
2019-05-17T02:40:46.120Z,27.97
2019-05-17T02:46:04.841Z,27.00
2019-05-17T02:51:23.958Z,28.57
2019-05-17T02:56:43.731Z,29.47
2019-05-17T03:02:03.396Z,28.57
2019-05-17T03:07:23.334Z,27.07
2019-05-17T03:12:44.478Z,29.43
2019-05-17T03:18:03.786Z,27.33
2019-05-17T03:23:23.608Z,25.68
2019-05-17T03:28:42.907Z,27.60
2019-05-17T03:34:06.300Z,27.17
2019-05-17T03:39:22.824Z,28.30
2019-05-17T03:44:43.820Z,27.87
2019-05-17T03:50:03.297Z,27.77
2019-05-17T03:55:23.463Z,25.87
2019-05-17T04:00:42.960Z,26.33
2019-05-17T04:06:03.940Z,27.67
2019-05-17T04:11:31.168Z,27.70
2019-05-17T04:16:42.935Z,27.27
2019-05-17T04:22:03.614Z,30.45
2019-05-17T04:27:22.937Z,26.67
2019-05-17T04:32:44.221Z,25.85
2019-05-17T04:38:04.161Z,24.40
2019-05-17T04:43:23.230Z,22.42
2019-05-17T04:48:43.816Z,21.53
2019-05-17T04:54:03.179Z,21.20
2019-05-17T04:59:24.253Z,21.23
2019-05-17T05:04:43.519Z,21.90
2019-05-17T05:10:03.189Z,21.87
2019-05-17T05:15:32.223Z,20.20
2019-05-17T05:20:52.728Z,20.33
2019-05-17T05:26:12.086Z,20.03
2019-05-17T05:31:32.185Z,18.70
2019-05-17T05:36:52.530Z,17.67
2019-05-17T05:42:13.845Z,17.30
2019-05-17T05:47:32.395Z,18.10
2019-05-17T05:52:52.434Z,15.77
2019-05-17T05:58:12.121Z,17.10
2019-05-17T06:03:32.018Z,17.87
2019-05-17T06:08:52.067Z,16.70
2019-05-17T06:14:12.222Z,17.27
2019-05-17T06:19:31.519Z,17.35
2019-05-17T06:24:52.020Z,15.77
2019-05-17T06:30:12.558Z,16.20
2019-05-17T06:35:32.527Z,17.37
2019-05-17T06:40:52.391Z,16.47
2019-05-17T06:46:12.433Z,16.03
2019-05-17T06:51:31.683Z,15.43
2019-05-17T06:56:52.562Z,15.60
2019-05-17T07:02:11.436Z,15.87
2019-05-17T07:07:30.706Z,13.70
2019-05-17T07:12:57.776Z,11.60
2019-05-17T07:18:10.380Z,12.47
2019-05-17T07:23:30.263Z,12.10
2019-05-17T07:28:49.790Z,11.77
2019-05-17T07:34:09.252Z,11.67
2019-05-17T07:39:29.526Z,11.10
2019-05-17T07:44:49.660Z,11.17
2019-05-17T07:50:11.429Z,11.50
2019-05-17T07:55:30.265Z,11.23
2019-05-17T08:00:51.146Z,11.40
2019-05-17T08:06:10.595Z,10.77
2019-05-17T08:11:30.354Z,10.10
2019-05-17T08:16:50.188Z,9.27
2019-05-17T08:22:09.780Z,9.70
2019-05-17T08:27:29.681Z,9.70
2019-05-17T08:32:50.515Z,8.40
2019-05-17T08:38:10.256Z,7.97
2019-05-17T08:43:39.872Z,7.77
2019-05-17T08:48:49.578Z,8.10
2019-05-17T08:54:10.258Z,8.90
2019-05-17T08:59:29.648Z,7.57
2019-05-17T09:04:49.801Z,8.93
2019-05-17T09:10:09.984Z,8.20
2019-05-17T09:15:29.639Z,6.87
2019-05-17T09:20:49.506Z,7.07
2019-05-17T09:26:10.089Z,6.23
2019-05-17T09:31:29.820Z,6.50
2019-05-17T09:36:49.718Z,5.43
2019-05-17T09:42:10.355Z,5.07
2019-05-17T09:47:30.064Z,5.70
2019-05-17T09:52:49.447Z,4.70
2019-05-17T09:58:09.850Z,5.00
2019-05-17T10:03:30.718Z,4.47
2019-05-17T10:08:49.577Z,4.00
2019-05-17T10:14:11.512Z,4.03
2019-05-17T10:19:29.454Z,3.77
2019-05-17T10:24:48.114Z,3.77
2019-05-17T10:30:11.415Z,4.33
2019-05-17T10:35:30.046Z,4.00
2019-05-17T10:40:50.129Z,4.10
2019-05-17T10:46:10.627Z,4.20
2019-05-17T10:51:29.669Z,3.50
2019-05-17T10:56:50.248Z,3.43
2019-05-17T11:02:09.921Z,4.33
2019-05-17T11:07:28.882Z,4.50
2019-05-17T11:12:47.458Z,4.93
2019-05-17T11:18:06.105Z,5.03
2019-05-17T11:23:24.742Z,5.03
2019-05-17T11:28:43.387Z,5.33
2019-05-17T11:34:02.037Z,4.60
2019-05-17T11:39:20.636Z,4.13
2019-05-17T11:44:39.225Z,5.00
2019-05-17T11:49:57.873Z,4.70
2019-05-17T11:55:16.508Z,4.83
2019-05-17T12:00:35.328Z,4.93
2019-05-17T12:05:53.995Z,4.50
2019-05-17T12:11:12.626Z,4.53
2019-05-17T12:16:31.127Z,4.27
2019-05-17T12:21:49.810Z,3.90
2019-05-17T12:27:08.455Z,3.73
2019-05-17T12:32:27.096Z,3.87
2019-05-17T12:37:45.737Z,3.43
2019-05-17T12:43:04.690Z,3.57
2019-05-17T12:48:23.598Z,3.20
2019-05-17T12:53:42.248Z,3.20
2019-05-17T12:59:00.967Z,3.33
2019-05-17T13:04:20.631Z,3.13
2019-05-17T13:09:40.119Z,3.90
2019-05-17T13:14:58.756Z,3.80
2019-05-17T13:20:17.815Z,3.00
2019-05-17T13:25:36.435Z,3.53
2019-05-17T13:30:55.114Z,3.63
2019-05-17T13:36:13.780Z,3.47
2019-05-17T13:41:32.405Z,2.70
2019-05-17T13:46:51.040Z,2.90
2019-05-17T13:52:09.691Z,2.93
2019-05-17T13:57:28.402Z,2.83
2019-05-17T14:02:47.035Z,3.33
2019-05-17T14:08:06.007Z,3.13
2019-05-17T14:13:24.665Z,3.23
2019-05-17T14:18:43.414Z,3.27
2019-05-17T14:24:02.049Z,3.30
2019-05-17T14:29:20.620Z,3.20
2019-05-17T14:34:39.321Z,3.50
2019-05-17T14:39:57.980Z,3.50
2019-05-17T14:45:16.621Z,2.85
2019-05-17T14:50:35.254Z,3.07
2019-05-17T14:55:53.889Z,3.50
2019-05-17T15:01:12.635Z,3.30
2019-05-17T15:06:31.302Z,2.57
2019-05-17T15:11:49.963Z,2.77
2019-05-17T15:17:08.631Z,2.97
2019-05-17T15:22:27.262Z,3.80
2019-05-17T15:27:45.912Z,3.15
2019-05-17T15:33:04.619Z,3.50
2019-05-17T15:38:23.251Z,3.40
2019-05-17T15:43:41.977Z,3.07
2019-05-17T15:49:00.820Z,3.57
2019-05-17T15:54:19.626Z,3.53
2019-05-17T15:59:38.246Z,4.20
2019-05-17T16:04:56.880Z,4.20
2019-05-17T16:10:21.515Z,4.12
2019-05-17T16:15:40.140Z,5.73
2019-05-17T16:21:01.876Z,4.57
2019-05-17T16:26:20.901Z,5.07
2019-05-17T16:31:39.484Z,5.77
2019-05-17T16:36:58.053Z,5.13
2019-05-17T16:42:17.101Z,5.13
2019-05-17T16:47:35.747Z,5.83
2019-05-17T16:53:05.448Z,5.30
2019-05-17T16:58:14.764Z,5.90
2019-05-17T17:03:43.786Z,5.03
2019-05-17T17:08:53.816Z,5.80
2019-05-17T17:14:12.466Z,5.70
2019-05-17T17:19:31.111Z,4.77
2019-05-17T17:24:49.674Z,5.03
2019-05-17T17:30:10.052Z,5.20
2019-05-17T17:35:28.706Z,4.90
2019-05-17T17:40:47.262Z,4.87
2019-05-17T17:46:05.970Z,4.50
2019-05-17T17:51:24.649Z,4.70
2019-05-17T17:56:43.295Z,4.50
2019-05-17T18:02:01.973Z,4.57
2019-05-17T18:07:20.644Z,4.57
2019-05-17T18:12:39.296Z,4.37
2019-05-17T18:18:11.908Z,3.67
2019-05-17T18:23:30.554Z,3.87
2019-05-17T18:28:49.193Z,4.00
2019-05-17T18:34:07.820Z,3.83
2019-05-17T18:39:26.460Z,4.43
2019-05-17T18:44:45.195Z,3.87
2019-05-17T18:50:04.550Z,3.47
2019-05-17T18:55:23.230Z,3.67
2019-05-17T19:00:41.874Z,3.90
2019-05-17T19:06:00.529Z,4.10
2019-05-17T19:11:19.541Z,4.00
2019-05-17T19:16:38.249Z,3.60
2019-05-17T19:21:57.952Z,3.83
2019-05-17T19:27:16.545Z,3.67
2019-05-17T19:32:35.417Z,3.83
2019-05-17T19:43:33.617Z,4.47
2019-05-17T19:48:54.039Z,4.73
2019-05-17T19:54:21.565Z,4.97
2019-05-17T19:59:40.357Z,4.97
2019-05-17T20:04:59.093Z,4.78
2019-05-17T20:10:18.745Z,4.90
2019-05-17T20:15:38.510Z,5.60
2019-05-17T20:20:57.304Z,4.67
2019-05-17T20:26:24.192Z,4.97
2019-05-17T20:31:43.483Z,5.00
2019-05-17T20:37:02.515Z,4.80
2019-05-17T20:42:23.157Z,4.90
2019-05-17T20:47:41.860Z,5.10
2019-05-17T20:53:00.517Z,5.20
2019-05-17T20:58:20.888Z,4.90
2019-05-17T21:03:42.612Z,4.60
2019-05-17T21:09:03.823Z,4.43
2019-05-17T21:14:22.985Z,6.33
2019-05-17T21:19:41.600Z,5.93
2019-05-17T21:25:00.205Z,5.70
2019-05-17T21:30:19.176Z,6.73
2019-05-17T21:35:37.842Z,6.77
2019-05-17T21:40:56.748Z,6.60
2019-05-17T21:46:15.356Z,6.67
2019-05-17T21:51:34.015Z,6.83
2019-05-17T21:56:52.681Z,6.37
2019-05-17T22:02:11.385Z,6.67
2019-05-17T22:07:30.151Z,7.67
2019-05-17T22:12:48.805Z,7.62
2019-05-17T22:18:07.857Z,7.57
2019-05-17T22:23:26.492Z,7.67
2019-05-17T22:28:45.491Z,8.43
2019-05-17T22:34:04.135Z,8.07
2019-05-17T22:39:22.777Z,8.27
2019-05-17T22:44:41.416Z,7.60
2019-05-17T22:50:00.067Z,8.50
2019-05-17T22:55:18.695Z,8.57
2019-05-17T23:00:37.351Z,8.50
2019-05-17T23:05:55.923Z,9.00
2019-05-17T23:11:14.558Z,8.70
2019-05-17T23:16:33.265Z,9.43
2019-05-17T23:21:51.986Z,10.07
2019-05-17T23:27:10.488Z,11.20
2019-05-17T23:32:29.161Z,10.63
2019-05-17T23:37:47.825Z,10.55
2019-05-17T23:43:06.466Z,11.40
2019-05-17T23:48:25.043Z,11.53
2019-05-17T23:53:44.054Z,12.50
2019-05-17T23:59:02.705Z,11.57
